createdAt,value
2023-01-22T00:01:44.687Z,103098.25
2023-01-22T00:04:15.273Z,103090.47
2023-01-22T00:06:44.302Z,103095.69
2023-01-22T00:09:15.598Z,103098.19
2023-01-22T00:11:44.650Z,103089.63
2023-01-22T00:14:13.853Z,103083.66
2023-01-22T00:16:43.060Z,103079.28
2023-01-22T00:19:13.705Z,103080.16
2023-01-22T00:21:42.779Z,103075.00
2023-01-22T00:24:12.219Z,103069.88
2023-01-22T00:26:41.276Z,103068.97
2023-01-22T00:29:10.387Z,103063.06
2023-01-22T00:31:39.555Z,103067.31
2023-01-22T00:34:10.333Z,103064.72
2023-01-22T00:36:42.668Z,103062.13
2023-01-22T00:39:12.475Z,103064.75
2023-01-22T00:41:42.768Z,103063.84
2023-01-22T00:44:11.879Z,103059.59
2023-01-22T00:46:41.113Z,103066.47
2023-01-22T00:49:10.274Z,103058.72
2023-01-22T00:51:40.675Z,103045.88
2023-01-22T00:54:11.218Z,103052.72
2023-01-22T00:56:40.200Z,103057.03
2023-01-22T00:59:10.408Z,103058.69
2023-01-22T01:01:40.174Z,103054.44
2023-01-22T01:04:09.315Z,103059.53
2023-01-22T01:06:39.920Z,103048.38
2023-01-22T01:09:09.099Z,103050.09
2023-01-22T01:11:38.195Z,103057.00
2023-01-22T01:14:07.531Z,103063.03
2023-01-22T01:16:36.572Z,103056.06
2023-01-22T01:19:07.973Z,103057.81
2023-01-22T01:21:37.193Z,103050.94
2023-01-22T01:24:08.053Z,103049.22
2023-01-22T01:26:37.072Z,103052.66
2023-01-22T01:29:09.477Z,103044.00
2023-01-22T01:31:39.699Z,103039.75
2023-01-22T01:34:10.517Z,103037.94
2023-01-22T01:36:48.849Z,103040.56
2023-01-22T01:39:19.996Z,103050.06
2023-01-22T01:41:50.314Z,103044.88
2023-01-22T01:44:21.374Z,103044.03
2023-01-22T01:46:54.058Z,103047.41
2023-01-22T01:49:30.640Z,103049.16
2023-01-22T01:52:02.621Z,103040.56
2023-01-22T01:54:33.323Z,103042.31
2023-01-22T01:57:06.715Z,103052.59
2023-01-22T01:59:36.718Z,103045.78
2023-01-22T02:02:05.927Z,103051.75
2023-01-22T02:04:35.163Z,103039.66
2023-01-22T02:07:05.166Z,103030.28
2023-01-22T02:09:37.093Z,103061.19
2023-01-22T02:12:07.084Z,103044.91
2023-01-22T02:14:40.437Z,103052.66
2023-01-22T02:17:11.800Z,103049.22
2023-01-22T02:19:41.151Z,103045.72
2023-01-22T02:22:16.137Z,103042.25
2023-01-22T02:24:45.913Z,103052.66
2023-01-22T02:27:15.262Z,103056.09
2023-01-22T02:29:44.294Z,103053.53
2023-01-22T02:32:13.799Z,103054.34
2023-01-22T02:34:42.906Z,103044.88
2023-01-22T02:37:13.669Z,103048.31
2023-01-22T02:39:42.802Z,103055.16
2023-01-22T02:42:12.322Z,103041.44
2023-01-22T02:44:43.320Z,103047.47
2023-01-22T02:47:12.384Z,103035.41
2023-01-22T02:49:42.771Z,103037.97
2023-01-22T02:52:13.301Z,103032.81
2023-01-22T02:54:42.360Z,103036.25
2023-01-22T02:57:11.409Z,103025.06
2023-01-22T02:59:40.708Z,103037.09
2023-01-22T03:02:12.913Z,103050.91
2023-01-22T03:04:42.120Z,103043.13
2023-01-22T03:07:13.837Z,103043.13
2023-01-22T03:09:42.895Z,103037.94
2023-01-22T03:12:11.928Z,103039.66
2023-01-22T03:14:58.470Z,103041.38
2023-01-22T03:17:45.060Z,103040.47
2023-01-22T03:20:31.874Z,103030.97
2023-01-22T03:23:02.237Z,103030.13
2023-01-22T03:25:31.289Z,103028.41
2023-01-22T03:28:19.247Z,103031.03
2023-01-22T03:30:56.676Z,103031.84
2023-01-22T03:33:26.345Z,103031.84
2023-01-22T03:36:01.818Z,103027.56
2023-01-22T03:38:34.201Z,103030.16
2023-01-22T03:41:05.307Z,103029.28
2023-01-22T03:43:35.661Z,103026.72
2023-01-22T03:46:11.477Z,103024.94
2023-01-22T03:48:44.772Z,103028.44
2023-01-22T03:51:16.293Z,103033.59
2023-01-22T03:53:47.908Z,103029.31
2023-01-22T03:56:21.643Z,103028.44
2023-01-22T03:58:51.739Z,103027.53
2023-01-22T04:01:25.458Z,103023.22
2023-01-22T04:03:55.438Z,103019.78
2023-01-22T04:06:27.770Z,103025.81
2023-01-22T04:08:58.570Z,103025.81
2023-01-22T04:11:32.844Z,103026.63
2023-01-22T04:14:01.980Z,103025.00
2023-01-22T04:16:33.997Z,103020.59
2023-01-22T04:19:11.769Z,103024.94
2023-01-22T04:21:49.555Z,103026.66
2023-01-22T04:24:20.428Z,103018.88
2023-01-22T04:26:50.345Z,103023.16
2023-01-22T04:29:21.674Z,103029.19
2023-01-22T04:31:51.328Z,103029.13
2023-01-22T04:34:20.366Z,103011.94
2023-01-22T04:36:58.818Z,103018.88
2023-01-22T04:39:33.854Z,103015.41
2023-01-22T04:42:02.901Z,103006.81
2023-01-22T04:44:31.974Z,103012.84
2023-01-22T04:47:01.270Z,103014.50
2023-01-22T04:49:30.442Z,103008.53
2023-01-22T04:51:59.979Z,103004.19
2023-01-22T04:54:31.938Z,103007.59
2023-01-22T04:57:00.972Z,103011.88
2023-01-22T04:59:30.000Z,102999.84
2023-01-22T05:02:00.071Z,103007.56
2023-01-22T05:04:29.308Z,103002.44
2023-01-22T05:06:58.488Z,103005.88
2023-01-22T05:09:27.877Z,103006.72
2023-01-22T05:12:02.542Z,103003.28
2023-01-22T05:14:36.166Z,103002.38
2023-01-22T05:17:05.193Z,103005.81
2023-01-22T05:19:35.455Z,103000.72
2023-01-22T05:22:05.809Z,103004.09
2023-01-22T05:24:35.374Z,103011.03
2023-01-22T05:27:05.881Z,103002.38
2023-01-22T05:29:43.072Z,103004.09
2023-01-22T05:32:32.371Z,103006.59
2023-01-22T05:35:01.448Z,103003.19
2023-01-22T05:37:31.636Z,103011.78
2023-01-22T05:40:00.617Z,103008.34
2023-01-22T05:42:35.265Z,103009.22
2023-01-22T05:45:08.034Z,103005.78
2023-01-22T05:47:42.049Z,103000.56
2023-01-22T05:50:31.314Z,103004.94
2023-01-22T05:53:09.929Z,103011.81
2023-01-22T05:55:39.798Z,103010.88
2023-01-22T05:58:10.191Z,103017.00
2023-01-22T06:00:39.275Z,103016.94
2023-01-22T06:03:11.640Z,103018.66
2023-01-22T06:05:48.800Z,103011.78
2023-01-22T06:08:17.837Z,103021.22
2023-01-22T06:10:52.357Z,103022.06
2023-01-22T06:13:22.909Z,103019.44
2023-01-22T06:15:55.937Z,103019.41
2023-01-22T06:18:44.910Z,103021.97
2023-01-22T06:21:16.807Z,103015.94
2023-01-22T06:23:46.264Z,103018.53
2023-01-22T06:26:15.976Z,103021.97
2023-01-22T06:28:46.371Z,103021.94
2023-01-22T06:31:15.750Z,103018.50
2023-01-22T06:33:44.864Z,103031.41
2023-01-22T06:36:16.475Z,103020.16
2023-01-22T06:38:45.585Z,103027.97
2023-01-22T06:41:18.592Z,103023.59
2023-01-22T06:43:51.141Z,103020.97
2023-01-22T06:46:21.117Z,103030.47
2023-01-22T06:49:10.275Z,103032.13
2023-01-22T06:51:41.174Z,103028.66
2023-01-22T06:54:13.007Z,103036.31
2023-01-22T06:56:42.074Z,103036.34
2023-01-22T06:59:12.460Z,103037.13
2023-01-22T07:01:42.095Z,103036.31
2023-01-22T07:04:12.011Z,103037.22
2023-01-22T07:06:41.565Z,103044.06
2023-01-22T07:09:11.325Z,103050.88
2023-01-22T07:11:41.615Z,103054.31
2023-01-22T07:14:13.459Z,103055.19
2023-01-22T07:16:42.819Z,103050.03
2023-01-22T07:19:12.314Z,103053.41
2023-01-22T07:21:41.962Z,103054.31
2023-01-22T07:24:12.279Z,103061.16
2023-01-22T07:26:42.806Z,103055.97
2023-01-22T07:29:13.403Z,103056.91
2023-01-22T07:31:43.213Z,103057.75
2023-01-22T07:34:12.508Z,103065.41
2023-01-22T07:36:41.653Z,103058.53
2023-01-22T07:39:10.695Z,103060.25
2023-01-22T07:41:39.770Z,103057.66
2023-01-22T07:44:14.959Z,103060.19
2023-01-22T07:46:44.038Z,103068.81
2023-01-22T07:49:13.406Z,103065.38
2023-01-22T07:51:42.418Z,103065.41
2023-01-22T07:54:11.463Z,103077.41
2023-01-22T07:56:40.522Z,103082.56
2023-01-22T07:59:09.518Z,103070.56
2023-01-22T08:01:39.928Z,103080.84
2023-01-22T08:04:09.195Z,103078.28
2023-01-22T08:06:38.322Z,103088.59
2023-01-22T08:09:07.571Z,103079.13
2023-01-22T08:11:36.568Z,103091.19
2023-01-22T08:14:05.609Z,103105.03
2023-01-22T08:16:35.716Z,103097.22
2023-01-22T08:19:06.251Z,103104.91
2023-01-22T08:21:35.322Z,103117.84
2023-01-22T08:24:05.112Z,103110.94
2023-01-22T08:26:34.091Z,103116.09
2023-01-22T08:29:06.459Z,103116.97
2023-01-22T08:31:36.573Z,103110.00
2023-01-22T08:34:07.466Z,103120.31
2023-01-22T08:36:36.497Z,103122.03
2023-01-22T08:39:05.713Z,103117.75
2023-01-22T08:41:34.817Z,103107.44
2023-01-22T08:44:04.037Z,103124.63
2023-01-22T08:46:35.863Z,103122.00
2023-01-22T08:49:06.661Z,103123.72
2023-01-22T08:51:36.045Z,103124.53
2023-01-22T08:54:05.332Z,103126.31
2023-01-22T08:56:34.444Z,103127.97
2023-01-22T08:59:06.458Z,103129.78
2023-01-22T09:01:36.037Z,103135.75
2023-01-22T09:04:09.179Z,103138.38
2023-01-22T09:06:39.843Z,103130.53
2023-01-22T09:09:09.253Z,103131.34
2023-01-22T09:11:38.331Z,103126.19
2023-01-22T09:14:08.360Z,103122.72
2023-01-22T09:16:37.860Z,103122.66
2023-01-22T09:19:07.516Z,103132.09
2023-01-22T09:21:39.284Z,103120.88
2023-01-22T09:24:09.045Z,103131.22
2023-01-22T09:26:38.291Z,103121.75
2023-01-22T09:29:07.575Z,103120.88
2023-01-22T09:31:37.181Z,103126.06
2023-01-22T09:34:07.044Z,103123.47
2023-01-22T09:36:36.099Z,103124.28
2023-01-22T09:39:06.612Z,103116.50
2023-01-22T09:41:38.146Z,103120.88
2023-01-22T09:44:12.298Z,103116.56
2023-01-22T09:46:45.137Z,103114.72
2023-01-22T09:49:24.570Z,103130.19
2023-01-22T09:51:56.704Z,103131.03
2023-01-22T09:54:28.871Z,103126.78
2023-01-22T09:57:00.001Z,103124.09
2023-01-22T09:59:33.444Z,103126.69
2023-01-22T10:02:15.738Z,103121.41
2023-01-22T10:04:47.869Z,103124.97
2023-01-22T10:07:23.550Z,103133.47
2023-01-22T10:09:57.149Z,103126.47
2023-01-22T10:12:30.382Z,103128.19
2023-01-22T10:15:00.338Z,103126.41
2023-01-22T10:17:33.944Z,103122.84
2023-01-22T10:20:06.475Z,103126.28
2023-01-22T10:22:35.839Z,103125.31
2023-01-22T10:25:07.608Z,103130.47
2023-01-22T10:27:39.786Z,103131.47
2023-01-22T10:30:20.120Z,103122.72
2023-01-22T10:33:01.358Z,103120.19
2023-01-22T10:35:32.024Z,103123.56
2023-01-22T10:38:02.331Z,103123.56
2023-01-22T10:40:41.139Z,103114.06
2023-01-22T10:43:13.963Z,103114.06
2023-01-22T10:45:53.472Z,103111.47
2023-01-22T10:48:23.723Z,103101.84
2023-01-22T10:51:03.871Z,103097.47
2023-01-22T10:53:35.699Z,103101.78
2023-01-22T10:56:12.572Z,103099.97
2023-01-22T10:58:49.009Z,103099.97
2023-01-22T11:01:30.283Z,103088.81
2023-01-22T11:03:59.315Z,103091.34
2023-01-22T11:06:37.117Z,103093.06
2023-01-22T11:09:14.049Z,103100.78
2023-01-22T11:11:48.194Z,103097.38
2023-01-22T11:14:23.438Z,103090.53
2023-01-22T11:16:55.187Z,103099.09
2023-01-22T11:19:37.255Z,103085.34
2023-01-22T11:22:18.119Z,103097.31
2023-01-22T11:24:48.508Z,103088.81
2023-01-22T11:27:31.449Z,103087.94
2023-01-22T11:30:11.765Z,103094.81
2023-01-22T11:32:56.145Z,103088.69
2023-01-22T11:35:30.923Z,103090.34
2023-01-22T11:38:15.975Z,103083.44
2023-01-22T11:41:04.088Z,103080.78
2023-01-22T11:44:10.852Z,103084.97
2023-01-22T11:46:57.851Z,103074.72
2023-01-22T11:49:36.976Z,103075.44
2023-01-22T11:52:19.821Z,103079.75
2023-01-22T11:55:05.891Z,103072.78
2023-01-22T11:57:41.770Z,103068.47
2023-01-22T12:00:38.397Z,103068.47
2023-01-22T12:03:35.653Z,103072.78
2023-01-22T12:06:19.043Z,103071.06
2023-01-22T12:08:59.951Z,103072.00
2023-01-22T12:11:51.076Z,103070.19
2023-01-22T12:14:36.308Z,103077.97
2023-01-22T12:17:18.263Z,103078.84
2023-01-22T12:20:18.111Z,103082.16
2023-01-22T12:22:51.695Z,103078.59
2023-01-22T12:25:28.432Z,103077.81
2023-01-22T12:28:03.448Z,103080.34
2023-01-22T12:30:46.330Z,103070.66
2023-01-22T12:33:20.783Z,103076.81
2023-01-22T12:35:52.331Z,103073.13
2023-01-22T12:38:39.682Z,103080.25
2023-01-22T12:41:32.460Z,103075.84
2023-01-22T12:44:06.297Z,103075.78
2023-01-22T12:46:49.734Z,103070.53
2023-01-22T12:49:20.868Z,103078.22
2023-01-22T12:51:51.195Z,103074.84
2023-01-22T12:54:29.714Z,103075.44
2023-01-22T12:57:12.596Z,103073.06
2023-01-22T12:59:47.323Z,103073.91
2023-01-22T13:02:24.902Z,103078.97
2023-01-22T13:04:56.243Z,103070.44
2023-01-22T13:07:35.045Z,103072.94
2023-01-22T13:10:05.900Z,103074.63
2023-01-22T13:12:45.412Z,103071.09
2023-01-22T13:15:20.974Z,103064.81
2023-01-22T13:18:06.668Z,103072.34
2023-01-22T13:20:47.510Z,103073.09
2023-01-22T13:23:17.199Z,103059.97
2023-01-22T13:25:46.310Z,103058.91
2023-01-22T13:28:19.631Z,103064.88
2023-01-22T13:31:03.504Z,103067.41
2023-01-22T13:33:33.133Z,103062.22
2023-01-22T13:36:14.633Z,103063.06
2023-01-22T13:38:51.479Z,103075.81
2023-01-22T13:41:33.791Z,103080.41
2023-01-22T13:44:03.850Z,103076.06
2023-01-22T13:46:33.078Z,103076.94
2023-01-22T13:49:08.109Z,103084.78
2023-01-22T13:51:39.134Z,103082.19
2023-01-22T13:54:09.089Z,103091.72
2023-01-22T13:56:38.429Z,103094.47
2023-01-22T13:59:21.306Z,103094.47
2023-01-22T14:01:51.282Z,103094.38
2023-01-22T14:04:29.615Z,103093.69
2023-01-22T14:07:00.083Z,103094.59
2023-01-22T14:09:31.573Z,103092.91
2023-01-22T14:12:01.965Z,103101.50
2023-01-22T14:14:40.942Z,103097.16
2023-01-22T14:17:20.518Z,103111.97
2023-01-22T14:19:49.624Z,103106.78
2023-01-22T14:22:20.025Z,103118.91
2023-01-22T14:24:52.360Z,103116.38
2023-01-22T14:27:22.075Z,103114.72
2023-01-22T14:29:51.612Z,103120.72
2023-01-22T14:32:20.730Z,103118.19
2023-01-22T14:34:49.784Z,103125.88
2023-01-22T14:37:21.216Z,103123.31
2023-01-22T14:39:50.320Z,103123.34
2023-01-22T14:42:19.430Z,103126.91
2023-01-22T14:44:48.532Z,103127.78
2023-01-22T14:47:17.719Z,103131.31
2023-01-22T14:49:48.837Z,103134.63
2023-01-22T14:52:19.317Z,103138.19
2023-01-22T14:54:48.368Z,103130.44
2023-01-22T14:57:17.411Z,103135.66
2023-01-22T14:59:46.454Z,103142.66
2023-01-22T15:02:15.568Z,103138.38
2023-01-22T15:04:45.516Z,103157.34
2023-01-22T15:07:14.564Z,103147.00
2023-01-22T15:09:48.302Z,103140.97
2023-01-22T15:12:19.716Z,103157.44
2023-01-22T15:14:48.931Z,103157.44
2023-01-22T15:17:19.223Z,103156.66
2023-01-22T15:19:48.422Z,103158.38
2023-01-22T15:22:17.636Z,103160.09
2023-01-22T15:24:48.017Z,103171.28
2023-01-22T15:27:18.623Z,103172.22
2023-01-22T15:29:48.011Z,103169.63
2023-01-22T15:32:17.101Z,103170.50
2023-01-22T15:34:46.135Z,103174.03
2023-01-22T15:37:15.150Z,103172.25
2023-01-22T15:39:44.536Z,103172.28
2023-01-22T15:42:14.996Z,103174.94
2023-01-22T15:44:44.011Z,103174.88
2023-01-22T15:47:14.386Z,103187.06
2023-01-22T15:49:43.579Z,103191.38
2023-01-22T15:52:12.640Z,103187.06
2023-01-22T15:54:41.784Z,103188.81
2023-01-22T15:57:10.983Z,103181.94
2023-01-22T15:59:42.042Z,103197.44
2023-01-22T16:02:14.780Z,103200.13
2023-01-22T16:04:43.913Z,103200.09
2023-01-22T16:07:12.939Z,103193.19
2023-01-22T16:09:42.067Z,103198.31
2023-01-22T16:12:20.440Z,103195.72
2023-01-22T16:14:50.901Z,103201.84
2023-01-22T16:17:19.956Z,103198.44
2023-01-22T16:19:50.355Z,103200.03
2023-01-22T16:22:19.555Z,103199.25
2023-01-22T16:24:48.667Z,103203.50
2023-01-22T16:27:18.419Z,103205.38
2023-01-22T16:29:47.860Z,103205.28
2023-01-22T16:32:18.270Z,103206.22
2023-01-22T16:34:47.399Z,103210.50
2023-01-22T16:37:17.704Z,103208.03
2023-01-22T16:39:46.739Z,103203.66
2023-01-22T16:42:15.877Z,103207.16
2023-01-22T16:44:45.219Z,103203.69
2023-01-22T16:47:14.316Z,103214.88
2023-01-22T16:49:44.745Z,103210.66
2023-01-22T16:52:22.342Z,103215.81
2023-01-22T16:54:52.274Z,103216.72
2023-01-22T16:57:21.397Z,103208.06
2023-01-22T16:59:50.429Z,103216.72
2023-01-22T17:02:20.624Z,103226.13
2023-01-22T17:04:51.101Z,103216.63
2023-01-22T17:07:32.896Z,103219.25
2023-01-22T17:10:03.189Z,103222.75
2023-01-22T17:12:32.340Z,103227.19
2023-01-22T17:15:01.743Z,103229.69
2023-01-22T17:17:30.783Z,103222.75
2023-01-22T17:20:01.176Z,103226.25
2023-01-22T17:22:33.051Z,103223.66
2023-01-22T17:25:02.156Z,103228.91
2023-01-22T17:27:32.266Z,103222.72
2023-01-22T17:30:01.355Z,103224.59
2023-01-22T17:32:30.430Z,103233.25
2023-01-22T17:35:00.873Z,103227.13
2023-01-22T17:37:29.951Z,103234.09
2023-01-22T17:39:58.974Z,103231.44
2023-01-22T17:42:27.999Z,103241.00
2023-01-22T17:44:57.390Z,103236.69
2023-01-22T17:47:26.457Z,103233.25
2023-01-22T17:49:55.942Z,103234.97
2023-01-22T17:52:26.433Z,103231.50
2023-01-22T17:54:55.459Z,103239.28
2023-01-22T17:57:24.537Z,103241.06
2023-01-22T17:59:53.693Z,103242.75
2023-01-22T18:02:22.790Z,103245.34
2023-01-22T18:04:51.929Z,103247.06
2023-01-22T18:07:20.977Z,103252.25
2023-01-22T18:09:51.534Z,103251.41
2023-01-22T18:12:20.675Z,103255.72
2023-01-22T18:14:50.134Z,103254.91
2023-01-22T18:17:19.157Z,103255.72
2023-01-22T18:19:48.447Z,103254.91
2023-01-22T18:22:17.624Z,103256.66
2023-01-22T18:24:46.674Z,103260.91
2023-01-22T18:27:17.175Z,103258.44
2023-01-22T18:29:46.367Z,103273.06
2023-01-22T18:32:15.388Z,103265.34
2023-01-22T18:34:44.450Z,103265.41
2023-01-22T18:37:13.512Z,103268.81
2023-01-22T18:39:42.588Z,103267.19
2023-01-22T18:42:11.660Z,103273.19
2023-01-22T18:44:42.106Z,103267.19
2023-01-22T18:47:11.234Z,103273.25
2023-01-22T18:49:40.315Z,103273.19
2023-01-22T18:52:09.480Z,103278.44
2023-01-22T18:54:38.503Z,103279.25
2023-01-22T18:57:07.541Z,103282.69
2023-01-22T18:59:36.763Z,103281.91
2023-01-22T19:02:08.799Z,103294.00
2023-01-22T19:04:37.814Z,103286.28
2023-01-22T19:07:06.921Z,103287.16
2023-01-22T19:09:36.158Z,103286.28
2023-01-22T19:12:07.253Z,103293.25
2023-01-22T19:14:36.307Z,103295.84
2023-01-22T19:17:07.282Z,103294.94
2023-01-22T19:19:36.271Z,103300.09
2023-01-22T19:22:05.387Z,103306.16
2023-01-22T19:24:34.514Z,103300.16
2023-01-22T19:27:04.016Z,103302.75
2023-01-22T19:29:33.136Z,103307.06
2023-01-22T19:32:02.422Z,103311.34
2023-01-22T19:34:32.993Z,103307.88
2023-01-22T19:37:03.019Z,103307.88
2023-01-22T19:39:32.386Z,103312.19
2023-01-22T19:42:05.208Z,103316.53
2023-01-22T19:44:36.049Z,103314.81
2023-01-22T19:47:05.474Z,103315.72
2023-01-22T19:49:36.065Z,103317.38
2023-01-22T19:52:05.584Z,103323.44
2023-01-22T19:54:34.727Z,103327.75
2023-01-22T19:57:03.837Z,103327.66
2023-01-22T19:59:33.277Z,103338.91
2023-01-22T20:02:02.885Z,103338.97
2023-01-22T20:04:34.409Z,103345.91
2023-01-22T20:07:06.268Z,103342.41
2023-01-22T20:09:36.697Z,103343.31
2023-01-22T20:12:08.542Z,103351.97
2023-01-22T20:14:43.188Z,103351.97
2023-01-22T20:17:13.801Z,103355.44
2023-01-22T20:19:43.054Z,103365.00
2023-01-22T20:22:13.624Z,103362.34
2023-01-22T20:24:43.897Z,103361.47
2023-01-22T20:27:12.895Z,103375.31
2023-01-22T20:29:42.077Z,103373.63
2023-01-22T20:32:11.496Z,103379.69
2023-01-22T20:34:41.971Z,103373.69
2023-01-22T20:37:12.664Z,103371.97
2023-01-22T20:39:41.688Z,103374.56
2023-01-22T20:42:10.828Z,103369.41
2023-01-22T20:44:40.232Z,103370.22
2023-01-22T20:47:09.272Z,103381.47
2023-01-22T20:49:38.388Z,103377.13
2023-01-22T20:52:07.663Z,103369.38
2023-01-22T20:54:50.016Z,103377.13
2023-01-22T20:57:27.113Z,103375.41
2023-01-22T20:59:56.429Z,103371.09
2023-01-22T21:02:25.478Z,103375.50
2023-01-22T21:04:56.420Z,103365.97
2023-01-22T21:07:25.473Z,103364.19
2023-01-22T21:09:55.900Z,103373.78
2023-01-22T21:12:24.937Z,103369.41
2023-01-22T21:14:55.346Z,103365.09
2023-01-22T21:17:24.705Z,103362.50
2023-01-22T21:19:55.270Z,103362.50
2023-01-22T21:22:24.368Z,103367.69
2023-01-22T21:24:54.977Z,103364.28
2023-01-22T21:27:24.031Z,103367.69
2023-01-22T21:29:53.120Z,103371.16
2023-01-22T21:32:22.150Z,103372.88
2023-01-22T21:34:51.240Z,103366.88
2023-01-22T21:37:20.459Z,103363.47
2023-01-22T21:39:49.703Z,103366.91
2023-01-22T21:42:37.996Z,103361.78
2023-01-22T21:45:25.660Z,103365.19
2023-01-22T21:47:54.730Z,103368.66
2023-01-22T21:50:23.762Z,103371.25
2023-01-22T21:52:55.015Z,103365.97
2023-01-22T21:55:24.195Z,103366.91
2023-01-22T21:57:54.678Z,103366.00
2023-01-22T22:00:23.832Z,103380.75
2023-01-22T22:02:53.222Z,103377.34
2023-01-22T22:05:22.341Z,103377.34
2023-01-22T22:07:51.384Z,103381.66
2023-01-22T22:10:20.966Z,103388.56
2023-01-22T22:12:50.379Z,103392.03
2023-01-22T22:15:21.219Z,103395.47
2023-01-22T22:17:50.321Z,103392.03
2023-01-22T22:20:19.910Z,103394.66
2023-01-22T22:22:49.072Z,103392.94
2023-01-22T22:25:18.204Z,103396.41
2023-01-22T22:27:47.214Z,103398.13
2023-01-22T22:30:16.831Z,103402.44
2023-01-22T22:32:47.499Z,103400.66
2023-01-22T22:35:16.621Z,103402.44
2023-01-22T22:37:45.627Z,103405.91
2023-01-22T22:40:15.066Z,103407.63
2023-01-22T22:42:44.125Z,103411.91
2023-01-22T22:45:13.179Z,103405.00
2023-01-22T22:47:42.340Z,103411.03
2023-01-22T22:50:13.289Z,103409.38
2023-01-22T22:52:43.368Z,103412.84
2023-01-22T22:55:12.467Z,103417.13
2023-01-22T22:57:41.477Z,103405.91
2023-01-22T23:00:13.177Z,103401.56
2023-01-22T23:02:43.525Z,103401.59
2023-01-22T23:05:13.868Z,103394.72
2023-01-22T23:07:42.993Z,103393.81
2023-01-22T23:10:28.605Z,103393.84
2023-01-22T23:12:59.471Z,103398.19
2023-01-22T23:15:30.802Z,103397.34
2023-01-22T23:18:02.173Z,103399.94
2023-01-22T23:20:32.607Z,103402.53
2023-01-22T23:23:01.630Z,103399.09
2023-01-22T23:25:30.726Z,103397.34
2023-01-22T23:27:59.789Z,103399.09
2023-01-22T23:30:28.880Z,103399.13
2023-01-22T23:32:58.012Z,103400.03
2023-01-22T23:35:27.023Z,103397.41
2023-01-22T23:37:57.402Z,103394.84
2023-01-22T23:40:26.445Z,103398.31
2023-01-22T23:42:55.492Z,103391.44
2023-01-22T23:45:24.526Z,103389.75
2023-01-22T23:47:53.921Z,103385.44
2023-01-22T23:50:23.298Z,103400.13
2023-01-22T23:52:52.405Z,103400.13
2023-01-22T23:55:22.811Z,103407.03
2023-01-22T23:57:51.841Z,103402.72
